Time;durP1;ratioP1;P1;durP2;ratioP2;P2;SDS_P1;SDS_P2;PMS_P1;PMS_P2;Temp;Humidity;BMP_temperature;BMP_pressure;BME280_temperature;BME280_humidity;BME280_pressure;Samples;Min_cycle;Max_cycle;Signal;HPM_P1;HPM_P2
2023/07/29 00:04:31;;;;;;;4.18;2.47;;;;;;;24.42;56.67;99879.19;41325996;28;20089;-79
2023/07/29 00:24:32;;;;;;;4.05;2.65;;;;;;;24.36;57.40;99871.84;41292479;28;20097;-73
2023/07/29 00:44:32;;;;;;;5.30;2.92;;;;;;;24.33;57.33;99869.50;41314904;28;20042;-78
2023/07/29 01:04:32;;;;;;;7.18;3.47;;;;;;;24.30;57.36;99868.00;41322465;28;20054;-75
2023/07/29 01:24:34;;;;;;;3.25;2.55;;;;;;;24.33;57.33;99869.50;41340237;28;20074;-79
2023/07/29 01:44:36;;;;;;;4.93;2.95;;;;;;;24.24;57.38;99866.81;41320574;28;20580;-75
2023/07/29 02:04:37;;;;;;;4.18;2.75;;;;;;;24.22;57.39;99867.94;41318615;28;20050;-74
2023/07/29 02:24:38;;;;;;;7.70;2.95;;;;;;;24.19;57.27;99866.41;41331698;28;20065;-78
2023/07/29 02:44:39;;;;;;;3.38;2.40;;;;;;;24.17;56.54;99868.41;41334281;28;20058;-80
2023/07/29 03:04:40;;;;;;;4.63;2.42;;;;;;;24.10;56.05;99876.09;41323488;28;20417;-81
2023/07/29 03:24:42;;;;;;;11.27;2.50;;;;;;;24.07;56.14;99880.84;41311286;28;20047;-79
2023/07/29 03:44:42;;;;;;;4.50;2.72;;;;;;;23.98;56.19;99886.03;41335013;28;20050;-75
2023/07/29 04:04:47;;;;;;;4.78;2.80;;;;;;;23.93;56.56;99895.44;41315036;28;20509;-74
2023/07/29 04:24:47;;;;;;;5.93;2.92;;;;;;;23.81;57.28;99895.59;41298330;28;20062;-75
2023/07/29 04:44:48;;;;;;;2.83;2.42;;;;;;;23.65;57.34;99900.69;41328982;28;20046;-75
2023/07/29 05:04:48;;;;;;;4.13;3.03;;;;;;;23.57;55.18;99885.56;41373253;28;20056;-76
2023/07/29 05:24:48;;;;;;;2.58;2.15;;;;;;;23.65;54.58;99906.78;41305314;28;20042;-81
2023/07/29 05:44:49;;;;;;;2.90;2.28;;;;;;;23.75;53.21;99919.97;41299776;28;20588;-78
2023/07/29 06:04:49;;;;;;;4.43;2.13;;;;;;;23.87;53.31;99948.88;41321111;28;20054;-81
2023/07/29 06:24:52;;;;;;;4.50;2.58;;;;;;;23.93;54.28;99972.09;41323912;28;20041;-75
2023/07/29 06:44:52;;;;;;;6.03;2.90;;;;;;;23.99;54.30;99966.22;41307343;28;20078;-77
2023/07/29 07:04:52;;;;;;;4.40;2.30;;;;;;;24.04;52.40;99966.59;41322567;28;20273;-76
2023/07/29 07:24:53;;;;;;;3.33;2.50;;;;;;;24.17;52.32;99950.41;41314957;28;20037;-79
2023/07/29 07:44:53;;;;;;;4.10;2.20;;;;;;;24.28;53.05;99946.72;41351302;28;20049;-80
2023/07/29 08:04:54;;;;;;;3.03;2.10;;;;;;;24.39;53.22;99930.59;41330860;28;20037;-75
2023/07/29 08:24:54;;;;;;;4.10;2.40;;;;;;;24.49;52.86;99921.75;41277695;28;20076;-78
2023/07/29 08:44:56;;;;;;;14.20;3.67;;;;;;;24.56;54.52;99906.91;41303754;28;20165;-83
2023/07/29 09:04:56;;;;;;;17.17;5.10;;;;;;;24.59;54.11;99909.25;41348415;28;20046;-82
2023/07/29 09:24:57;;;;;;;22.25;6.32;;;;;;;24.62;53.64;99899.19;41328626;28;20035;-83
2023/07/29 09:44:57;;;;;;;16.02;6.05;;;;;;;24.67;53.55;99882.91;41372050;28;20042;-82
2023/07/29 10:04:59;;;;;;;22.13;7.68;;;;;;;24.72;53.33;99871.84;41340779;28;20122;-82
2023/07/29 10:25:05;;;;;;;23.27;6.63;;;;;;;24.76;53.47;99868.72;41354516;28;20042;-80
2023/07/29 10:45:23;;;;;;;33.78;9.50;;;;;;;24.84;53.37;99864.47;41340262;28;20053;-84
2023/07/29 11:05:24;;;;;;;28.60;9.32;;;;;;;24.90;53.12;99851.44;41362026;28;20053;-82
2023/07/29 11:25:26;;;;;;;34.20;9.63;;;;;;;24.97;52.87;99851.63;41357620;28;20053;-81
2023/07/29 11:45:26;;;;;;;29.77;8.73;;;;;;;25.03;52.70;99848.34;41351676;28;20073;-83
2023/07/29 12:05:27;;;;;;;27.05;7.80;;;;;;;25.14;52.83;99831.34;41342556;28;20046;-83
2023/07/29 12:25:28;;;;;;;24.60;8.00;;;;;;;25.21;52.72;99803.25;41346419;28;20068;-82
2023/07/29 12:45:35;;;;;;;19.10;8.27;;;;;;;25.22;52.49;99798.78;41354827;28;20065;-82
2023/07/29 13:05:36;;;;;;;21.27;7.60;;;;;;;25.26;52.46;99784.22;41364531;28;20509;-82
2023/07/29 13:25:36;;;;;;;23.35;7.53;;;;;;;25.36;52.24;99778.78;41334086;28;20050;-81
2023/07/29 13:45:37;;;;;;;17.83;6.93;;;;;;;25.51;52.20;99756.00;41300849;28;20046;-83
2023/07/29 14:05:37;;;;;;;16.35;6.18;;;;;;;25.65;52.31;99729.84;41286804;28;20105;-80
2023/07/29 14:25:38;;;;;;;14.23;5.70;;;;;;;25.77;52.10;99711.75;41274465;28;20107;-83
2023/07/29 14:45:38;;;;;;;12.35;4.82;;;;;;;25.79;52.22;99704.47;41313285;28;20101;-81
2023/07/29 15:05:40;;;;;;;10.75;4.90;;;;;;;25.75;51.94;99709.28;41257698;28;20552;-80
2023/07/29 15:25:40;;;;;;;12.70;5.32;;;;;;;25.74;51.91;99710.28;41290749;28;20046;-80
2023/07/29 15:45:41;;;;;;;6.63;2.92;;;;;;;25.94;49.05;99709.94;41271844;28;20038;-80
2023/07/29 16:05:41;;;;;;;2.50;1.50;;;;;;;25.93;48.09;99722.38;41278919;28;20053;-78
2023/07/29 16:25:42;;;;;;;2.78;1.65;;;;;;;25.93;48.36;99737.44;41313847;28;20142;-79
2023/07/29 16:45:42;;;;;;;1.90;1.67;;;;;;;25.94;48.57;99752.38;41378777;28;20084;-81
2023/07/29 17:05:45;;;;;;;4.10;2.38;;;;;;;25.93;48.91;99774.59;41383013;28;20062;-82
2023/07/29 17:25:48;;;;;;;4.57;2.00;;;;;;;25.88;47.26;99791.84;41365644;28;20077;-80
2023/07/29 17:45:49;;;;;;;2.65;1.70;;;;;;;25.83;49.06;99803.91;41316341;28;20296;-80
2023/07/29 18:05:50;;;;;;;6.78;1.10;;;;;;;25.67;48.65;99794.13;41320400;28;20050;-81
2023/07/29 18:25:57;;;;;;;3.22;1.27;;;;;;;25.53;49.24;99817.63;41318552;28;20057;-78
2023/07/29 18:45:59;;;;;;;1.20;1.10;;;;;;;25.44;50.11;99828.34;41349145;28;20038;-79
2023/07/29 19:06:00;;;;;;;2.08;1.67;;;;;;;25.31;50.52;99820.84;41345324;28;20057;-75
2023/07/29 19:26:00;;;;;;;2.80;1.70;;;;;;;25.25;51.66;99839.03;41330319;28;20038;-74
2023/07/29 19:46:03;;;;;;;3.65;2.20;;;;;;;25.18;51.38;99815.97;41294497;28;20064;-77
2023/07/29 20:06:05;;;;;;;4.03;1.95;;;;;;;24.72;52.34;99774.72;41264570;28;20440;-77
2023/07/29 20:26:07;;;;;;;2.65;1.85;;;;;;;24.51;51.40;99798.03;41320842;28;20053;-77
2023/07/29 20:46:07;;;;;;;2.55;1.67;;;;;;;24.46;50.40;99812.56;41316083;28;20039;-77
2023/07/29 21:06:12;;;;;;;2.83;2.00;;;;;;;24.49;50.38;99835.25;41326092;28;21361;-76
2023/07/29 21:26:13;;;;;;;2.13;1.73;;;;;;;24.35;50.48;99831.34;41328410;28;20060;-79
2023/07/29 21:46:13;;;;;;;3.53;1.77;;;;;;;24.18;51.29;99863.91;41334445;28;20065;-78
2023/07/29 22:06:14;;;;;;;2.72;1.92;;;;;;;23.70;53.06;99871.19;41349841;28;20046;-78
2023/07/29 22:26:15;;;;;;;3.95;2.47;;;;;;;23.61;53.68;99886.13;41348491;28;20041;-74
2023/07/29 22:46:15;;;;;;;3.30;2.38;;;;;;;23.76;53.84;99879.34;41352429;28;20115;-76
2023/07/29 23:06:17;;;;;;;2.95;2.15;;;;;;;23.66;54.14;99891.78;41341964;28;20096;-78
2023/07/29 23:26:17;;;;;;;2.53;2.05;;;;;;;23.50;54.25;99884.50;41319687;28;20137;-76
2023/07/29 23:46:18;;;;;;;3.20;1.80;;;;;;;23.52;54.80;99892.28;41319637;28;20042;-77
